sensor_id;sensor_type;location;lat;lon;timestamp;P1;durP1;ratioP1;P2;durP2;ratioP2
27796;SDS011;15177;50.844;4.412;2023-07-13T00:01:50;9.23;;;2.25;;
27796;SDS011;15177;50.844;4.412;2023-07-13T00:04:20;10.20;;;2.28;;
27796;SDS011;15177;50.844;4.412;2023-07-13T00:06:48;12.13;;;2.42;;
27796;SDS011;15177;50.844;4.412;2023-07-13T00:09:14;18.85;;;2.42;;
27796;SDS011;15177;50.844;4.412;2023-07-13T00:11:41;12.05;;;2.60;;
27796;SDS011;15177;50.844;4.412;2023-07-13T00:14:08;15.20;;;3.60;;
27796;SDS011;15177;50.844;4.412;2023-07-13T00:16:35;5.25;;;1.85;;
27796;SDS011;15177;50.844;4.412;2023-07-13T00:19:02;15.57;;;2.67;;
27796;SDS011;15177;50.844;4.412;2023-07-13T00:21:28;12.63;;;3.15;;
27796;SDS011;15177;50.844;4.412;2023-07-13T00:23:53;12.80;;;2.83;;
27796;SDS011;15177;50.844;4.412;2023-07-13T00:26:19;10.50;;;2.33;;
27796;SDS011;15177;50.844;4.412;2023-07-13T00:28:45;8.52;;;2.70;;
27796;SDS011;15177;50.844;4.412;2023-07-13T00:31:11;12.45;;;3.42;;
27796;SDS011;15177;50.844;4.412;2023-07-13T00:33:42;8.40;;;2.95;;
27796;SDS011;15177;50.844;4.412;2023-07-13T00:36:09;7.00;;;2.17;;
27796;SDS011;15177;50.844;4.412;2023-07-13T00:38:35;11.00;;;2.30;;
27796;SDS011;15177;50.844;4.412;2023-07-13T00:41:02;14.70;;;4.05;;
27796;SDS011;15177;50.844;4.412;2023-07-13T00:43:29;18.30;;;2.92;;
27796;SDS011;15177;50.844;4.412;2023-07-13T00:48:26;9.70;;;2.58;;
27796;SDS011;15177;50.844;4.412;2023-07-13T00:50:55;10.70;;;3.20;;
27796;SDS011;15177;50.844;4.412;2023-07-13T00:53:23;8.38;;;2.60;;
27796;SDS011;15177;50.844;4.412;2023-07-13T00:55:51;9.10;;;2.58;;
27796;SDS011;15177;50.844;4.412;2023-07-13T00:58:20;10.68;;;2.92;;
27796;SDS011;15177;50.844;4.412;2023-07-13T01:00:46;13.98;;;3.15;;
27796;SDS011;15177;50.844;4.412;2023-07-13T01:03:14;13.25;;;2.67;;
27796;SDS011;15177;50.844;4.412;2023-07-13T01:05:40;15.38;;;2.55;;
27796;SDS011;15177;50.844;4.412;2023-07-13T01:08:05;15.40;;;2.72;;
27796;SDS011;15177;50.844;4.412;2023-07-13T01:10:31;10.80;;;2.58;;
27796;SDS011;15177;50.844;4.412;2023-07-13T01:13:04;11.32;;;3.05;;
27796;SDS011;15177;50.844;4.412;2023-07-13T01:18:11;8.27;;;2.38;;
27796;SDS011;15177;50.844;4.412;2023-07-13T01:20:50;13.02;;;2.90;;
27796;SDS011;15177;50.844;4.412;2023-07-13T01:23:19;12.55;;;2.78;;
27796;SDS011;15177;50.844;4.412;2023-07-13T01:25:45;6.15;;;2.50;;
27796;SDS011;15177;50.844;4.412;2023-07-13T01:28:11;11.98;;;2.40;;
27796;SDS011;15177;50.844;4.412;2023-07-13T01:30:38;10.65;;;2.40;;
27796;SDS011;15177;50.844;4.412;2023-07-13T01:33:05;6.82;;;2.22;;
27796;SDS011;15177;50.844;4.412;2023-07-13T01:35:35;6.85;;;2.72;;
27796;SDS011;15177;50.844;4.412;2023-07-13T01:38:01;16.75;;;2.83;;
27796;SDS011;15177;50.844;4.412;2023-07-13T01:40:28;13.55;;;3.30;;
27796;SDS011;15177;50.844;4.412;2023-07-13T01:42:55;10.95;;;2.78;;
27796;SDS011;15177;50.844;4.412;2023-07-13T01:45:21;10.65;;;2.95;;
27796;SDS011;15177;50.844;4.412;2023-07-13T01:47:46;12.10;;;4.05;;
27796;SDS011;15177;50.844;4.412;2023-07-13T01:50:12;11.77;;;2.65;;
27796;SDS011;15177;50.844;4.412;2023-07-13T01:52:38;11.50;;;3.10;;
27796;SDS011;15177;50.844;4.412;2023-07-13T01:55:04;11.93;;;3.25;;
27796;SDS011;15177;50.844;4.412;2023-07-13T01:57:30;20.92;;;4.03;;
27796;SDS011;15177;50.844;4.412;2023-07-13T01:59:56;15.40;;;2.67;;
27796;SDS011;15177;50.844;4.412;2023-07-13T02:02:22;11.75;;;2.90;;
27796;SDS011;15177;50.844;4.412;2023-07-13T02:04:47;14.05;;;2.97;;
27796;SDS011;15177;50.844;4.412;2023-07-13T02:07:13;13.15;;;3.63;;
27796;SDS011;15177;50.844;4.412;2023-07-13T02:09:40;13.15;;;3.20;;
27796;SDS011;15177;50.844;4.412;2023-07-13T02:12:07;13.55;;;3.05;;
27796;SDS011;15177;50.844;4.412;2023-07-13T02:14:33;9.25;;;2.60;;
27796;SDS011;15177;50.844;4.412;2023-07-13T02:16:59;16.52;;;3.08;;
27796;SDS011;15177;50.844;4.412;2023-07-13T02:19:25;15.35;;;2.97;;
27796;SDS011;15177;50.844;4.412;2023-07-13T02:21:50;11.90;;;3.15;;
27796;SDS011;15177;50.844;4.412;2023-07-13T02:24:16;19.15;;;3.30;;
27796;SDS011;15177;50.844;4.412;2023-07-13T02:26:44;13.98;;;3.63;;
27796;SDS011;15177;50.844;4.412;2023-07-13T02:29:10;10.85;;;2.95;;
27796;SDS011;15177;50.844;4.412;2023-07-13T02:31:36;12.10;;;3.13;;
27796;SDS011;15177;50.844;4.412;2023-07-13T02:34:02;20.25;;;4.18;;
27796;SDS011;15177;50.844;4.412;2023-07-13T02:36:28;13.85;;;3.78;;
27796;SDS011;15177;50.844;4.412;2023-07-13T02:38:54;17.10;;;3.70;;
27796;SDS011;15177;50.844;4.412;2023-07-13T02:41:19;21.17;;;3.65;;
27796;SDS011;15177;50.844;4.412;2023-07-13T02:43:45;13.52;;;3.05;;
27796;SDS011;15177;50.844;4.412;2023-07-13T02:46:11;12.50;;;3.13;;
27796;SDS011;15177;50.844;4.412;2023-07-13T02:48:37;10.82;;;2.63;;
27796;SDS011;15177;50.844;4.412;2023-07-13T02:51:04;13.40;;;3.20;;
27796;SDS011;15177;50.844;4.412;2023-07-13T02:53:30;11.05;;;3.38;;
27796;SDS011;15177;50.844;4.412;2023-07-13T02:55:56;23.00;;;4.70;;
27796;SDS011;15177;50.844;4.412;2023-07-13T02:58:22;11.65;;;2.90;;
27796;SDS011;15177;50.844;4.412;2023-07-13T03:00:51;16.58;;;4.00;;
27796;SDS011;15177;50.844;4.412;2023-07-13T03:03:17;14.35;;;3.13;;
27796;SDS011;15177;50.844;4.412;2023-07-13T03:05:43;12.00;;;3.47;;
27796;SDS011;15177;50.844;4.412;2023-07-13T03:08:15;18.23;;;3.35;;
27796;SDS011;15177;50.844;4.412;2023-07-13T03:10:41;15.50;;;3.72;;
27796;SDS011;15177;50.844;4.412;2023-07-13T03:13:10;16.23;;;3.40;;
27796;SDS011;15177;50.844;4.412;2023-07-13T03:15:35;18.80;;;3.47;;
27796;SDS011;15177;50.844;4.412;2023-07-13T03:18:01;18.50;;;3.60;;
27796;SDS011;15177;50.844;4.412;2023-07-13T03:20:26;20.05;;;3.45;;
27796;SDS011;15177;50.844;4.412;2023-07-13T03:22:52;21.48;;;4.07;;
27796;SDS011;15177;50.844;4.412;2023-07-13T03:25:18;16.80;;;3.28;;
27796;SDS011;15177;50.844;4.412;2023-07-13T03:27:46;11.38;;;3.35;;
27796;SDS011;15177;50.844;4.412;2023-07-13T03:30:12;15.35;;;3.47;;
27796;SDS011;15177;50.844;4.412;2023-07-13T03:32:38;14.10;;;3.58;;
27796;SDS011;15177;50.844;4.412;2023-07-13T03:35:04;14.55;;;3.50;;
27796;SDS011;15177;50.844;4.412;2023-07-13T03:37:30;13.85;;;3.15;;
27796;SDS011;15177;50.844;4.412;2023-07-13T03:39:55;12.13;;;3.83;;
27796;SDS011;15177;50.844;4.412;2023-07-13T03:42:21;16.25;;;3.58;;
27796;SDS011;15177;50.844;4.412;2023-07-13T03:44:47;17.30;;;3.53;;
27796;SDS011;15177;50.844;4.412;2023-07-13T03:47:17;16.20;;;3.67;;
27796;SDS011;15177;50.844;4.412;2023-07-13T03:49:43;18.63;;;4.00;;
27796;SDS011;15177;50.844;4.412;2023-07-13T03:52:11;18.17;;;3.83;;
27796;SDS011;15177;50.844;4.412;2023-07-13T03:54:39;10.57;;;3.38;;
27796;SDS011;15177;50.844;4.412;2023-07-13T03:57:05;17.92;;;4.10;;
27796;SDS011;15177;50.844;4.412;2023-07-13T03:59:31;15.27;;;3.58;;
27796;SDS011;15177;50.844;4.412;2023-07-13T04:02:00;12.95;;;3.90;;
27796;SDS011;15177;50.844;4.412;2023-07-13T04:04:29;18.25;;;4.00;;
27796;SDS011;15177;50.844;4.412;2023-07-13T04:06:55;13.77;;;3.45;;
27796;SDS011;15177;50.844;4.412;2023-07-13T04:09:23;13.52;;;3.90;;
27796;SDS011;15177;50.844;4.412;2023-07-13T04:11:49;15.55;;;4.28;;
27796;SDS011;15177;50.844;4.412;2023-07-13T04:14:15;16.15;;;3.20;;
27796;SDS011;15177;50.844;4.412;2023-07-13T04:16:41;20.10;;;4.40;;
27796;SDS011;15177;50.844;4.412;2023-07-13T04:19:08;18.02;;;3.75;;
27796;SDS011;15177;50.844;4.412;2023-07-13T04:21:35;18.83;;;3.80;;
27796;SDS011;15177;50.844;4.412;2023-07-13T04:24:02;16.58;;;3.70;;
27796;SDS011;15177;50.844;4.412;2023-07-13T04:26:29;11.85;;;3.65;;
27796;SDS011;15177;50.844;4.412;2023-07-13T04:28:55;23.63;;;3.58;;
27796;SDS011;15177;50.844;4.412;2023-07-13T04:31:21;17.88;;;3.97;;
27796;SDS011;15177;50.844;4.412;2023-07-13T04:33:47;10.25;;;3.17;;
27796;SDS011;15177;50.844;4.412;2023-07-13T04:36:14;16.42;;;3.42;;
27796;SDS011;15177;50.844;4.412;2023-07-13T04:38:41;13.85;;;3.40;;
27796;SDS011;15177;50.844;4.412;2023-07-13T04:41:07;14.60;;;4.25;;
27796;SDS011;15177;50.844;4.412;2023-07-13T04:43:34;13.95;;;3.72;;
27796;SDS011;15177;50.844;4.412;2023-07-13T04:46:04;14.52;;;2.97;;
27796;SDS011;15177;50.844;4.412;2023-07-13T04:48:34;21.25;;;4.47;;
27796;SDS011;15177;50.844;4.412;2023-07-13T04:51:00;15.65;;;3.83;;
27796;SDS011;15177;50.844;4.412;2023-07-13T04:53:26;13.35;;;4.22;;
27796;SDS011;15177;50.844;4.412;2023-07-13T04:55:53;13.90;;;3.70;;
27796;SDS011;15177;50.844;4.412;2023-07-13T04:58:18;15.32;;;4.25;;
27796;SDS011;15177;50.844;4.412;2023-07-13T05:00:44;15.07;;;3.63;;
27796;SDS011;15177;50.844;4.412;2023-07-13T05:03:10;20.33;;;4.63;;
27796;SDS011;15177;50.844;4.412;2023-07-13T05:05:36;19.13;;;3.72;;
27796;SDS011;15177;50.844;4.412;2023-07-13T05:08:01;19.15;;;3.80;;
27796;SDS011;15177;50.844;4.412;2023-07-13T05:10:27;16.83;;;4.70;;
27796;SDS011;15177;50.844;4.412;2023-07-13T05:12:53;19.10;;;4.30;;
27796;SDS011;15177;50.844;4.412;2023-07-13T05:15:22;11.98;;;3.53;;
27796;SDS011;15177;50.844;4.412;2023-07-13T05:17:48;14.73;;;3.97;;
27796;SDS011;15177;50.844;4.412;2023-07-13T05:20:15;18.10;;;4.80;;
27796;SDS011;15177;50.844;4.412;2023-07-13T05:22:42;18.75;;;4.60;;
27796;SDS011;15177;50.844;4.412;2023-07-13T05:25:08;17.75;;;4.15;;
27796;SDS011;15177;50.844;4.412;2023-07-13T05:27:34;18.00;;;4.22;;
27796;SDS011;15177;50.844;4.412;2023-07-13T05:30:01;16.90;;;3.22;;
27796;SDS011;15177;50.844;4.412;2023-07-13T05:32:28;19.73;;;4.30;;
27796;SDS011;15177;50.844;4.412;2023-07-13T05:34:54;13.40;;;3.42;;
27796;SDS011;15177;50.844;4.412;2023-07-13T05:37:19;19.38;;;4.22;;
27796;SDS011;15177;50.844;4.412;2023-07-13T05:39:45;17.15;;;3.67;;
27796;SDS011;15177;50.844;4.412;2023-07-13T05:42:11;19.02;;;4.38;;
27796;SDS011;15177;50.844;4.412;2023-07-13T05:44:37;17.05;;;4.20;;
27796;SDS011;15177;50.844;4.412;2023-07-13T05:47:02;14.65;;;3.83;;
27796;SDS011;15177;50.844;4.412;2023-07-13T05:49:29;22.85;;;4.22;;
27796;SDS011;15177;50.844;4.412;2023-07-13T05:51:55;22.33;;;4.10;;
27796;SDS011;15177;50.844;4.412;2023-07-13T05:54:21;16.23;;;4.07;;
27796;SDS011;15177;50.844;4.412;2023-07-13T05:56:47;21.60;;;3.72;;
27796;SDS011;15177;50.844;4.412;2023-07-13T05:59:12;18.13;;;4.35;;
27796;SDS011;15177;50.844;4.412;2023-07-13T06:01:38;15.85;;;4.55;;
27796;SDS011;15177;50.844;4.412;2023-07-13T06:04:04;21.90;;;5.28;;
27796;SDS011;15177;50.844;4.412;2023-07-13T06:06:30;13.93;;;3.30;;
27796;SDS011;15177;50.844;4.412;2023-07-13T06:08:55;18.20;;;3.97;;
27796;SDS011;15177;50.844;4.412;2023-07-13T06:11:25;22.10;;;4.07;;
27796;SDS011;15177;50.844;4.412;2023-07-13T06:13:52;19.75;;;4.15;;
27796;SDS011;15177;50.844;4.412;2023-07-13T06:16:19;15.43;;;4.45;;
27796;SDS011;15177;50.844;4.412;2023-07-13T06:18:45;20.40;;;5.35;;
27796;SDS011;15177;50.844;4.412;2023-07-13T06:21:29;17.00;;;4.60;;
27796;SDS011;15177;50.844;4.412;2023-07-13T06:23:54;18.98;;;4.32;;
27796;SDS011;15177;50.844;4.412;2023-07-13T06:26:20;13.70;;;3.45;;
27796;SDS011;15177;50.844;4.412;2023-07-13T06:28:46;23.50;;;5.32;;
27796;SDS011;15177;50.844;4.412;2023-07-13T06:31:13;16.00;;;4.70;;
27796;SDS011;15177;50.844;4.412;2023-07-13T06:33:39;17.25;;;4.43;;
27796;SDS011;15177;50.844;4.412;2023-07-13T06:36:06;18.75;;;4.70;;
27796;SDS011;15177;50.844;4.412;2023-07-13T06:38:33;17.25;;;3.90;;
27796;SDS011;15177;50.844;4.412;2023-07-13T06:40:59;16.75;;;4.03;;
27796;SDS011;15177;50.844;4.412;2023-07-13T06:43:25;25.55;;;4.70;;
27796;SDS011;15177;50.844;4.412;2023-07-13T06:45:51;16.70;;;4.00;;
27796;SDS011;15177;50.844;4.412;2023-07-13T06:48:19;15.52;;;4.00;;
27796;SDS011;15177;50.844;4.412;2023-07-13T06:50:45;19.85;;;3.85;;
27796;SDS011;15177;50.844;4.412;2023-07-13T06:53:13;21.23;;;4.05;;
27796;SDS011;15177;50.844;4.412;2023-07-13T06:55:39;22.90;;;4.60;;
27796;SDS011;15177;50.844;4.412;2023-07-13T06:58:05;15.70;;;3.58;;
27796;SDS011;15177;50.844;4.412;2023-07-13T07:00:32;17.90;;;3.72;;
27796;SDS011;15177;50.844;4.412;2023-07-13T07:02:58;18.40;;;3.65;;
27796;SDS011;15177;50.844;4.412;2023-07-13T07:05:23;16.85;;;4.32;;
27796;SDS011;15177;50.844;4.412;2023-07-13T07:07:50;16.60;;;3.67;;
27796;SDS011;15177;50.844;4.412;2023-07-13T07:10:16;15.30;;;3.65;;
27796;SDS011;15177;50.844;4.412;2023-07-13T07:12:42;23.55;;;4.38;;
27796;SDS011;15177;50.844;4.412;2023-07-13T07:15:08;14.90;;;3.45;;
27796;SDS011;15177;50.844;4.412;2023-07-13T07:17:34;15.55;;;3.55;;
27796;SDS011;15177;50.844;4.412;2023-07-13T07:20:00;20.20;;;3.10;;
27796;SDS011;15177;50.844;4.412;2023-07-13T07:22:26;21.95;;;4.35;;
27796;SDS011;15177;50.844;4.412;2023-07-13T07:24:53;20.73;;;4.20;;
27796;SDS011;15177;50.844;4.412;2023-07-13T07:27:19;13.05;;;3.63;;
27796;SDS011;15177;50.844;4.412;2023-07-13T07:29:45;15.38;;;4.20;;
27796;SDS011;15177;50.844;4.412;2023-07-13T07:32:11;13.60;;;3.45;;
27796;SDS011;15177;50.844;4.412;2023-07-13T07:34:36;19.08;;;3.58;;
27796;SDS011;15177;50.844;4.412;2023-07-13T07:37:02;12.88;;;3.53;;
27796;SDS011;15177;50.844;4.412;2023-07-13T07:39:28;17.70;;;3.15;;
27796;SDS011;15177;50.844;4.412;2023-07-13T07:41:54;17.33;;;3.50;;
27796;SDS011;15177;50.844;4.412;2023-07-13T07:44:20;16.02;;;3.22;;
27796;SDS011;15177;50.844;4.412;2023-07-13T07:46:46;16.10;;;3.38;;
27796;SDS011;15177;50.844;4.412;2023-07-13T07:49:11;11.88;;;2.97;;
27796;SDS011;15177;50.844;4.412;2023-07-13T07:51:38;17.33;;;3.38;;
27796;SDS011;15177;50.844;4.412;2023-07-13T07:54:04;12.30;;;2.85;;
27796;SDS011;15177;50.844;4.412;2023-07-13T07:56:30;13.32;;;3.47;;
27796;SDS011;15177;50.844;4.412;2023-07-13T07:58:56;12.00;;;2.97;;
27796;SDS011;15177;50.844;4.412;2023-07-13T08:01:22;10.73;;;2.50;;
27796;SDS011;15177;50.844;4.412;2023-07-13T08:03:48;13.68;;;3.72;;
27796;SDS011;15177;50.844;4.412;2023-07-13T08:06:14;12.13;;;3.63;;
27796;SDS011;15177;50.844;4.412;2023-07-13T08:08:40;12.68;;;3.22;;
27796;SDS011;15177;50.844;4.412;2023-07-13T08:11:06;15.60;;;3.25;;
27796;SDS011;15177;50.844;4.412;2023-07-13T08:13:33;12.93;;;3.13;;
27796;SDS011;15177;50.844;4.412;2023-07-13T08:15:59;13.60;;;3.35;;
27796;SDS011;15177;50.844;4.412;2023-07-13T08:18:25;13.55;;;3.40;;
27796;SDS011;15177;50.844;4.412;2023-07-13T08:20:51;11.00;;;2.50;;
27796;SDS011;15177;50.844;4.412;2023-07-13T08:23:17;10.40;;;2.83;;
27796;SDS011;15177;50.844;4.412;2023-07-13T08:25:42;13.07;;;3.35;;
27796;SDS011;15177;50.844;4.412;2023-07-13T08:28:15;12.60;;;3.13;;
27796;SDS011;15177;50.844;4.412;2023-07-13T08:30:41;14.20;;;3.30;;
27796;SDS011;15177;50.844;4.412;2023-07-13T08:33:06;9.43;;;2.63;;
27796;SDS011;15177;50.844;4.412;2023-07-13T08:35:32;8.65;;;3.15;;
27796;SDS011;15177;50.844;4.412;2023-07-13T08:37:58;10.00;;;2.95;;
27796;SDS011;15177;50.844;4.412;2023-07-13T08:40:25;11.68;;;2.65;;
27796;SDS011;15177;50.844;4.412;2023-07-13T08:42:58;10.43;;;2.95;;
27796;SDS011;15177;50.844;4.412;2023-07-13T08:45:34;10.90;;;2.85;;
27796;SDS011;15177;50.844;4.412;2023-07-13T08:48:11;13.88;;;2.90;;
27796;SDS011;15177;50.844;4.412;2023-07-13T08:53:21;9.93;;;3.00;;
27796;SDS011;15177;50.844;4.412;2023-07-13T08:55:50;10.13;;;3.22;;
27796;SDS011;15177;50.844;4.412;2023-07-13T08:58:24;12.52;;;2.60;;
27796;SDS011;15177;50.844;4.412;2023-07-13T09:01:03;11.48;;;2.85;;
27796;SDS011;15177;50.844;4.412;2023-07-13T09:06:49;13.30;;;2.80;;
27796;SDS011;15177;50.844;4.412;2023-07-13T09:14:48;9.13;;;2.85;;
27796;SDS011;15177;50.844;4.412;2023-07-13T09:17:27;8.52;;;2.38;;
27796;SDS011;15177;50.844;4.412;2023-07-13T09:22:58;7.50;;;2.03;;
27796;SDS011;15177;50.844;4.412;2023-07-13T09:25:33;11.40;;;2.72;;
27796;SDS011;15177;50.844;4.412;2023-07-13T09:28:09;10.45;;;2.80;;
27796;SDS011;15177;50.844;4.412;2023-07-13T09:33:14;8.63;;;2.50;;
27796;SDS011;15177;50.844;4.412;2023-07-13T09:35:40;8.57;;;2.92;;
27796;SDS011;15177;50.844;4.412;2023-07-13T09:38:11;9.32;;;2.78;;
27796;SDS011;15177;50.844;4.412;2023-07-13T09:43:14;6.32;;;2.33;;
27796;SDS011;15177;50.844;4.412;2023-07-13T09:45:42;8.50;;;1.85;;
27796;SDS011;15177;50.844;4.412;2023-07-13T09:48:13;9.45;;;2.40;;
27796;SDS011;15177;50.844;4.412;2023-07-13T09:50:41;12.57;;;2.85;;
27796;SDS011;15177;50.844;4.412;2023-07-13T09:53:11;9.98;;;2.40;;
27796;SDS011;15177;50.844;4.412;2023-07-13T09:55:42;6.68;;;2.25;;
27796;SDS011;15177;50.844;4.412;2023-07-13T09:58:17;8.48;;;1.98;;
27796;SDS011;15177;50.844;4.412;2023-07-13T10:01:03;10.82;;;2.80;;
27796;SDS011;15177;50.844;4.412;2023-07-13T10:03:30;8.07;;;2.70;;
27796;SDS011;15177;50.844;4.412;2023-07-13T10:06:12;9.35;;;2.65;;
27796;SDS011;15177;50.844;4.412;2023-07-13T10:08:40;9.10;;;2.35;;
27796;SDS011;15177;50.844;4.412;2023-07-13T10:11:19;6.97;;;2.30;;
27796;SDS011;15177;50.844;4.412;2023-07-13T10:14:00;11.88;;;2.70;;
27796;SDS011;15177;50.844;4.412;2023-07-13T10:16:33;11.25;;;2.42;;
27796;SDS011;15177;50.844;4.412;2023-07-13T10:19:14;8.60;;;2.17;;
27796;SDS011;15177;50.844;4.412;2023-07-13T10:22:01;9.13;;;2.60;;
27796;SDS011;15177;50.844;4.412;2023-07-13T10:24:35;7.35;;;2.00;;
27796;SDS011;15177;50.844;4.412;2023-07-13T10:27:16;5.20;;;2.08;;
27796;SDS011;15177;50.844;4.412;2023-07-13T10:30:02;10.93;;;2.40;;
27796;SDS011;15177;50.844;4.412;2023-07-13T10:32:38;8.23;;;2.72;;
27796;SDS011;15177;50.844;4.412;2023-07-13T10:35:04;7.95;;;2.10;;
27796;SDS011;15177;50.844;4.412;2023-07-13T10:40:15;9.35;;;2.40;;
27796;SDS011;15177;50.844;4.412;2023-07-13T10:42:46;6.30;;;2.35;;
27796;SDS011;15177;50.844;4.412;2023-07-13T10:45:15;8.63;;;2.55;;
27796;SDS011;15177;50.844;4.412;2023-07-13T10:47:44;8.70;;;2.38;;
27796;SDS011;15177;50.844;4.412;2023-07-13T10:50:15;6.80;;;2.40;;
27796;SDS011;15177;50.844;4.412;2023-07-13T10:52:49;8.45;;;2.55;;
27796;SDS011;15177;50.844;4.412;2023-07-13T10:55:36;8.10;;;2.30;;
27796;SDS011;15177;50.844;4.412;2023-07-13T10:58:21;6.78;;;2.40;;
27796;SDS011;15177;50.844;4.412;2023-07-13T11:01:21;10.43;;;2.17;;
27796;SDS011;15177;50.844;4.412;2023-07-13T11:06:42;12.07;;;2.28;;
27796;SDS011;15177;50.844;4.412;2023-07-13T11:09:24;6.35;;;1.83;;
27796;SDS011;15177;50.844;4.412;2023-07-13T11:11:59;6.82;;;2.13;;
27796;SDS011;15177;50.844;4.412;2023-07-13T11:14:41;4.32;;;1.90;;
27796;SDS011;15177;50.844;4.412;2023-07-13T11:19:53;6.28;;;1.95;;
27796;SDS011;15177;50.844;4.412;2023-07-13T11:22:41;10.18;;;2.22;;
27796;SDS011;15177;50.844;4.412;2023-07-13T11:25:30;8.98;;;2.00;;
27796;SDS011;15177;50.844;4.412;2023-07-13T11:39:01;6.07;;;1.75;;
27796;SDS011;15177;50.844;4.412;2023-07-13T11:44:21;5.65;;;2.00;;
27796;SDS011;15177;50.844;4.412;2023-07-13T11:46:58;7.40;;;1.98;;
27796;SDS011;15177;50.844;4.412;2023-07-13T11:49:28;5.32;;;1.98;;
27796;SDS011;15177;50.844;4.412;2023-07-13T11:51:58;6.60;;;1.73;;
27796;SDS011;15177;50.844;4.412;2023-07-13T11:57:37;7.50;;;1.92;;
27796;SDS011;15177;50.844;4.412;2023-07-13T11:59:52;6.38;;;1.95;;
27796;SDS011;15177;50.844;4.412;2023-07-13T12:04:59;6.78;;;1.88;;
27796;SDS011;15177;50.844;4.412;2023-07-13T12:07:28;7.45;;;2.22;;
27796;SDS011;15177;50.844;4.412;2023-07-13T12:10:03;6.55;;;2.28;;
27796;SDS011;15177;50.844;4.412;2023-07-13T12:12:57;3.30;;;1.90;;
27796;SDS011;15177;50.844;4.412;2023-07-13T12:15:37;4.20;;;1.90;;
27796;SDS011;15177;50.844;4.412;2023-07-13T12:18:03;4.35;;;1.67;;
27796;SDS011;15177;50.844;4.412;2023-07-13T12:20:38;6.53;;;2.08;;
27796;SDS011;15177;50.844;4.412;2023-07-13T12:23:05;6.15;;;2.30;;
27796;SDS011;15177;50.844;4.412;2023-07-13T12:25:31;8.13;;;2.05;;
27796;SDS011;15177;50.844;4.412;2023-07-13T12:27:57;7.25;;;1.85;;
27796;SDS011;15177;50.844;4.412;2023-07-13T12:33:05;3.50;;;1.65;;
27796;SDS011;15177;50.844;4.412;2023-07-13T12:35:46;4.40;;;1.42;;
27796;SDS011;15177;50.844;4.412;2023-07-13T12:38:14;5.53;;;1.63;;
27796;SDS011;15177;50.844;4.412;2023-07-13T12:40:41;3.75;;;1.55;;
27796;SDS011;15177;50.844;4.412;2023-07-13T12:43:11;8.05;;;2.10;;
27796;SDS011;15177;50.844;4.412;2023-07-13T12:45:38;5.45;;;2.28;;
27796;SDS011;15177;50.844;4.412;2023-07-13T12:48:06;10.65;;;2.65;;
27796;SDS011;15177;50.844;4.412;2023-07-13T12:50:40;7.10;;;3.13;;
27796;SDS011;15177;50.844;4.412;2023-07-13T12:53:14;5.97;;;2.50;;
27796;SDS011;15177;50.844;4.412;2023-07-13T12:55:45;5.68;;;2.35;;
27796;SDS011;15177;50.844;4.412;2023-07-13T12:58:22;10.50;;;3.10;;
27796;SDS011;15177;50.844;4.412;2023-07-13T13:00:54;6.55;;;2.72;;
27796;SDS011;15177;50.844;4.412;2023-07-13T13:03:32;9.35;;;3.40;;
27796;SDS011;15177;50.844;4.412;2023-07-13T13:06:06;9.98;;;2.85;;
27796;SDS011;15177;50.844;4.412;2023-07-13T13:08:55;7.55;;;2.70;;
27796;SDS011;15177;50.844;4.412;2023-07-13T13:11:28;5.65;;;2.20;;
27796;SDS011;15177;50.844;4.412;2023-07-13T13:13:56;4.50;;;2.70;;
27796;SDS011;15177;50.844;4.412;2023-07-13T13:16:31;6.10;;;2.38;;
27796;SDS011;15177;50.844;4.412;2023-07-13T13:19:00;3.67;;;2.28;;
27796;SDS011;15177;50.844;4.412;2023-07-13T13:21:47;6.43;;;2.63;;
27796;SDS011;15177;50.844;4.412;2023-07-13T13:24:16;4.10;;;1.95;;
27796;SDS011;15177;50.844;4.412;2023-07-13T13:26:43;5.93;;;2.47;;
27796;SDS011;15177;50.844;4.412;2023-07-13T13:29:17;5.78;;;2.00;;
27796;SDS011;15177;50.844;4.412;2023-07-13T13:31:45;8.07;;;1.98;;
27796;SDS011;15177;50.844;4.412;2023-07-13T13:34:12;4.07;;;2.15;;
27796;SDS011;15177;50.844;4.412;2023-07-13T13:36:39;5.30;;;2.22;;
27796;SDS011;15177;50.844;4.412;2023-07-13T13:39:25;6.25;;;2.35;;
27796;SDS011;15177;50.844;4.412;2023-07-13T13:41:57;5.35;;;2.15;;
27796;SDS011;15177;50.844;4.412;2023-07-13T13:44:23;4.47;;;2.08;;
27796;SDS011;15177;50.844;4.412;2023-07-13T13:46:50;5.90;;;2.33;;
27796;SDS011;15177;50.844;4.412;2023-07-13T13:49:18;8.77;;;2.53;;
27796;SDS011;15177;50.844;4.412;2023-07-13T13:51:48;8.15;;;2.22;;
27796;SDS011;15177;50.844;4.412;2023-07-13T13:54:15;7.75;;;2.40;;
27796;SDS011;15177;50.844;4.412;2023-07-13T13:56:42;4.70;;;1.40;;
27796;SDS011;15177;50.844;4.412;2023-07-13T13:59:09;6.45;;;1.88;;
27796;SDS011;15177;50.844;4.412;2023-07-13T14:01:36;8.07;;;1.90;;
27796;SDS011;15177;50.844;4.412;2023-07-13T14:04:03;7.38;;;1.88;;
27796;SDS011;15177;50.844;4.412;2023-07-13T14:06:30;6.55;;;1.90;;
27796;SDS011;15177;50.844;4.412;2023-07-13T14:08:57;4.55;;;1.90;;
27796;SDS011;15177;50.844;4.412;2023-07-13T14:11:22;5.30;;;1.67;;
27796;SDS011;15177;50.844;4.412;2023-07-13T14:13:49;6.60;;;1.90;;
27796;SDS011;15177;50.844;4.412;2023-07-13T14:16:18;10.93;;;2.50;;
27796;SDS011;15177;50.844;4.412;2023-07-13T14:18:46;5.32;;;2.00;;
27796;SDS011;15177;50.844;4.412;2023-07-13T14:21:13;5.38;;;2.00;;
27796;SDS011;15177;50.844;4.412;2023-07-13T14:23:44;4.53;;;2.00;;
27796;SDS011;15177;50.844;4.412;2023-07-13T14:26:12;4.85;;;1.83;;
27796;SDS011;15177;50.844;4.412;2023-07-13T14:28:43;5.57;;;1.73;;
27796;SDS011;15177;50.844;4.412;2023-07-13T14:31:14;4.32;;;1.80;;
27796;SDS011;15177;50.844;4.412;2023-07-13T14:33:41;5.97;;;2.13;;
27796;SDS011;15177;50.844;4.412;2023-07-13T14:38:55;9.02;;;2.38;;
27796;SDS011;15177;50.844;4.412;2023-07-13T14:41:22;5.68;;;1.92;;
27796;SDS011;15177;50.844;4.412;2023-07-13T14:43:48;3.60;;;1.80;;
27796;SDS011;15177;50.844;4.412;2023-07-13T14:46:27;5.60;;;1.80;;
27796;SDS011;15177;50.844;4.412;2023-07-13T14:49:09;7.72;;;1.95;;
27796;SDS011;15177;50.844;4.412;2023-07-13T14:51:45;8.52;;;2.28;;
27796;SDS011;15177;50.844;4.412;2023-07-13T14:54:11;6.75;;;2.28;;
27796;SDS011;15177;50.844;4.412;2023-07-13T14:56:37;4.72;;;1.65;;
27796;SDS011;15177;50.844;4.412;2023-07-13T14:59:03;8.00;;;2.08;;
27796;SDS011;15177;50.844;4.412;2023-07-13T15:01:30;4.55;;;1.70;;
27796;SDS011;15177;50.844;4.412;2023-07-13T15:03:56;5.78;;;2.03;;
27796;SDS011;15177;50.844;4.412;2023-07-13T15:06:23;5.03;;;1.83;;
27796;SDS011;15177;50.844;4.412;2023-07-13T15:08:49;3.45;;;1.55;;
27796;SDS011;15177;50.844;4.412;2023-07-13T15:11:15;5.28;;;1.50;;
27796;SDS011;15177;50.844;4.412;2023-07-13T15:13:41;4.80;;;1.83;;
27796;SDS011;15177;50.844;4.412;2023-07-13T15:16:14;2.67;;;1.48;;
27796;SDS011;15177;50.844;4.412;2023-07-13T15:18:43;3.33;;;1.92;;
27796;SDS011;15177;50.844;4.412;2023-07-13T15:21:10;4.78;;;1.70;;
27796;SDS011;15177;50.844;4.412;2023-07-13T15:23:39;4.68;;;1.83;;
27796;SDS011;15177;50.844;4.412;2023-07-13T15:26:07;8.38;;;1.95;;
27796;SDS011;15177;50.844;4.412;2023-07-13T15:28:37;5.93;;;2.08;;
27796;SDS011;15177;50.844;4.412;2023-07-13T15:31:04;4.78;;;2.33;;
27796;SDS011;15177;50.844;4.412;2023-07-13T15:33:41;5.45;;;1.73;;
27796;SDS011;15177;50.844;4.412;2023-07-13T15:36:07;5.70;;;1.60;;
27796;SDS011;15177;50.844;4.412;2023-07-13T15:38:32;4.35;;;1.70;;
27796;SDS011;15177;50.844;4.412;2023-07-13T15:41:18;6.45;;;2.17;;
27796;SDS011;15177;50.844;4.412;2023-07-13T15:43:46;4.50;;;1.80;;
27796;SDS011;15177;50.844;4.412;2023-07-13T15:46:12;5.30;;;1.80;;
27796;SDS011;15177;50.844;4.412;2023-07-13T15:48:39;4.65;;;1.77;;